Foxworth, Mississippi
Current Conditions -  °F | °C
As of 3:35 AM on Monday 20 Oct 2014 (Local Time) from KPIB Reporting Station
Clear Clear  
Wind Chill:   Ceiling: Unl
Heat Index:   Visibility: 10mi
Dew Point:   Wind: 0mph
Humidity: 87%   Direction: NA
Pressure: 30.07"   Gusts: NA
Location:  31.24°N, 89.87°W
Report Text: KPIB 200835Z AUTO 00000KT 10SM CLR 08/06 A3007 RMK AO1
Loading
Personal Weather Stations






























Interactive Weather Map
Tropical Storm Tracking
New forecast layout! Learn more

10-Day Weather Forecast

Advertisements
Track Severe Weather on mobile